sensor_id;sensor_type;location;lat;lon;timestamp;P1;durP1;ratioP1;P2;durP2;ratioP2
74898;SDS011;63458;48.210;16.338;2023-04-03T00:00:50;7.18;;;3.42;;
74898;SDS011;63458;48.210;16.338;2023-04-03T00:03:17;6.10;;;3.28;;
74898;SDS011;63458;48.210;16.338;2023-04-03T00:05:44;7.78;;;3.60;;
74898;SDS011;63458;48.210;16.338;2023-04-03T00:08:10;7.05;;;3.22;;
74898;SDS011;63458;48.210;16.338;2023-04-03T00:10:36;6.70;;;3.85;;
74898;SDS011;63458;48.210;16.338;2023-04-03T00:13:03;7.05;;;3.03;;
74898;SDS011;63458;48.210;16.338;2023-04-03T00:15:29;6.97;;;3.20;;
74898;SDS011;63458;48.210;16.338;2023-04-03T00:17:56;7.05;;;3.60;;
74898;SDS011;63458;48.210;16.338;2023-04-03T00:20:22;5.70;;;3.38;;
74898;SDS011;63458;48.210;16.338;2023-04-03T00:22:48;7.03;;;3.80;;
74898;SDS011;63458;48.210;16.338;2023-04-03T00:25:14;6.47;;;3.20;;
74898;SDS011;63458;48.210;16.338;2023-04-03T00:27:40;6.90;;;3.67;;
74898;SDS011;63458;48.210;16.338;2023-04-03T00:30:07;7.05;;;3.25;;
74898;SDS011;63458;48.210;16.338;2023-04-03T00:32:34;6.68;;;3.03;;
74898;SDS011;63458;48.210;16.338;2023-04-03T00:35:00;6.47;;;3.22;;
74898;SDS011;63458;48.210;16.338;2023-04-03T00:37:26;6.50;;;3.58;;
74898;SDS011;63458;48.210;16.338;2023-04-03T00:39:52;6.45;;;3.50;;
74898;SDS011;63458;48.210;16.338;2023-04-03T00:42:18;7.80;;;3.80;;
74898;SDS011;63458;48.210;16.338;2023-04-03T00:47:13;6.65;;;3.45;;
74898;SDS011;63458;48.210;16.338;2023-04-03T00:49:41;6.03;;;3.40;;
74898;SDS011;63458;48.210;16.338;2023-04-03T00:52:10;7.28;;;3.42;;
74898;SDS011;63458;48.210;16.338;2023-04-03T00:54:37;6.75;;;3.70;;
74898;SDS011;63458;48.210;16.338;2023-04-03T00:57:03;6.53;;;3.55;;
74898;SDS011;63458;48.210;16.338;2023-04-03T00:59:32;6.75;;;3.42;;
74898;SDS011;63458;48.210;16.338;2023-04-03T01:02:00;6.93;;;3.25;;
74898;SDS011;63458;48.210;16.338;2023-04-03T01:06:52;7.55;;;3.80;;
74898;SDS011;63458;48.210;16.338;2023-04-03T01:09:19;6.40;;;3.20;;
74898;SDS011;63458;48.210;16.338;2023-04-03T01:11:45;6.13;;;3.03;;
74898;SDS011;63458;48.210;16.338;2023-04-03T01:14:11;7.43;;;3.65;;
74898;SDS011;63458;48.210;16.338;2023-04-03T01:16:37;7.78;;;3.88;;
74898;SDS011;63458;48.210;16.338;2023-04-03T01:19:05;7.72;;;4.13;;
74898;SDS011;63458;48.210;16.338;2023-04-03T01:27:06;6.55;;;3.40;;
74898;SDS011;63458;48.210;16.338;2023-04-03T01:29:32;6.57;;;3.47;;
74898;SDS011;63458;48.210;16.338;2023-04-03T01:31:59;5.85;;;3.28;;
74898;SDS011;63458;48.210;16.338;2023-04-03T01:34:26;6.05;;;2.92;;
74898;SDS011;63458;48.210;16.338;2023-04-03T01:36:52;6.28;;;3.25;;
74898;SDS011;63458;48.210;16.338;2023-04-03T01:39:19;5.97;;;3.28;;
74898;SDS011;63458;48.210;16.338;2023-04-03T01:41:46;5.57;;;3.13;;
74898;SDS011;63458;48.210;16.338;2023-04-03T01:44:12;7.65;;;4.03;;
74898;SDS011;63458;48.210;16.338;2023-04-03T01:46:38;6.90;;;3.72;;
74898;SDS011;63458;48.210;16.338;2023-04-03T01:49:04;6.38;;;3.10;;
74898;SDS011;63458;48.210;16.338;2023-04-03T01:51:30;7.45;;;3.47;;
74898;SDS011;63458;48.210;16.338;2023-04-03T01:53:58;5.28;;;2.70;;
74898;SDS011;63458;48.210;16.338;2023-04-03T01:56:24;6.53;;;3.28;;
74898;SDS011;63458;48.210;16.338;2023-04-03T01:58:50;6.05;;;3.05;;
74898;SDS011;63458;48.210;16.338;2023-04-03T02:01:16;6.97;;;3.92;;
74898;SDS011;63458;48.210;16.338;2023-04-03T02:03:42;5.93;;;2.95;;
74898;SDS011;63458;48.210;16.338;2023-04-03T02:06:08;6.18;;;3.35;;
74898;SDS011;63458;48.210;16.338;2023-04-03T02:08:34;7.15;;;3.33;;
74898;SDS011;63458;48.210;16.338;2023-04-03T02:11:00;8.90;;;4.00;;
74898;SDS011;63458;48.210;16.338;2023-04-03T02:13:26;6.88;;;3.47;;
74898;SDS011;63458;48.210;16.338;2023-04-03T02:15:52;6.28;;;3.50;;
74898;SDS011;63458;48.210;16.338;2023-04-03T02:18:18;6.82;;;3.17;;
74898;SDS011;63458;48.210;16.338;2023-04-03T02:20:45;7.05;;;3.35;;
74898;SDS011;63458;48.210;16.338;2023-04-03T02:23:12;7.65;;;3.60;;
74898;SDS011;63458;48.210;16.338;2023-04-03T02:25:38;6.57;;;3.40;;
74898;SDS011;63458;48.210;16.338;2023-04-03T02:28:04;7.15;;;3.42;;
74898;SDS011;63458;48.210;16.338;2023-04-03T02:30:30;6.97;;;3.80;;
74898;SDS011;63458;48.210;16.338;2023-04-03T02:32:56;7.78;;;4.30;;
74898;SDS011;63458;48.210;16.338;2023-04-03T02:35:22;7.32;;;4.05;;
74898;SDS011;63458;48.210;16.338;2023-04-03T02:37:48;6.68;;;3.65;;
74898;SDS011;63458;48.210;16.338;2023-04-03T02:40:14;6.50;;;4.00;;
74898;SDS011;63458;48.210;16.338;2023-04-03T02:42:40;7.10;;;3.90;;
74898;SDS011;63458;48.210;16.338;2023-04-03T02:45:07;8.25;;;4.13;;
74898;SDS011;63458;48.210;16.338;2023-04-03T02:47:33;9.02;;;4.55;;
74898;SDS011;63458;48.210;16.338;2023-04-03T02:49:59;6.82;;;4.28;;
74898;SDS011;63458;48.210;16.338;2023-04-03T02:52:25;6.82;;;4.00;;
74898;SDS011;63458;48.210;16.338;2023-04-03T02:54:51;7.82;;;4.35;;
74898;SDS011;63458;48.210;16.338;2023-04-03T02:57:17;6.82;;;3.80;;
74898;SDS011;63458;48.210;16.338;2023-04-03T02:59:44;8.38;;;4.10;;
74898;SDS011;63458;48.210;16.338;2023-04-03T03:02:10;8.98;;;4.07;;
74898;SDS011;63458;48.210;16.338;2023-04-03T03:04:36;6.68;;;4.15;;
74898;SDS011;63458;48.210;16.338;2023-04-03T03:07:03;8.48;;;4.20;;
74898;SDS011;63458;48.210;16.338;2023-04-03T03:09:29;6.18;;;3.65;;
74898;SDS011;63458;48.210;16.338;2023-04-03T03:11:55;6.25;;;3.28;;
74898;SDS011;63458;48.210;16.338;2023-04-03T03:14:22;6.10;;;3.28;;
74898;SDS011;63458;48.210;16.338;2023-04-03T03:16:48;6.28;;;3.42;;
74898;SDS011;63458;48.210;16.338;2023-04-03T03:19:14;7.43;;;3.47;;
74898;SDS011;63458;48.210;16.338;2023-04-03T03:21:40;6.18;;;3.35;;
74898;SDS011;63458;48.210;16.338;2023-04-03T03:24:07;7.35;;;2.97;;
74898;SDS011;63458;48.210;16.338;2023-04-03T03:26:33;6.53;;;3.60;;
74898;SDS011;63458;48.210;16.338;2023-04-03T03:28:59;8.70;;;3.38;;
74898;SDS011;63458;48.210;16.338;2023-04-03T03:31:25;5.68;;;3.05;;
74898;SDS011;63458;48.210;16.338;2023-04-03T03:33:51;6.32;;;3.03;;
74898;SDS011;63458;48.210;16.338;2023-04-03T03:36:17;6.68;;;3.40;;
74898;SDS011;63458;48.210;16.338;2023-04-03T03:38:43;8.85;;;3.55;;
74898;SDS011;63458;48.210;16.338;2023-04-03T03:41:09;7.32;;;3.80;;
74898;SDS011;63458;48.210;16.338;2023-04-03T03:43:35;7.30;;;3.40;;
74898;SDS011;63458;48.210;16.338;2023-04-03T03:46:01;6.70;;;3.63;;
74898;SDS011;63458;48.210;16.338;2023-04-03T03:48:27;7.05;;;3.35;;
74898;SDS011;63458;48.210;16.338;2023-04-03T03:50:53;6.93;;;3.65;;
74898;SDS011;63458;48.210;16.338;2023-04-03T03:53:20;7.10;;;3.67;;
74898;SDS011;63458;48.210;16.338;2023-04-03T03:55:46;6.47;;;3.53;;
74898;SDS011;63458;48.210;16.338;2023-04-03T03:58:12;6.78;;;3.63;;
74898;SDS011;63458;48.210;16.338;2023-04-03T04:00:38;7.45;;;3.53;;
74898;SDS011;63458;48.210;16.338;2023-04-03T04:03:04;7.03;;;3.60;;
74898;SDS011;63458;48.210;16.338;2023-04-03T04:05:30;7.50;;;4.10;;
74898;SDS011;63458;48.210;16.338;2023-04-03T04:07:56;6.43;;;3.58;;
74898;SDS011;63458;48.210;16.338;2023-04-03T04:10:22;6.60;;;3.65;;
74898;SDS011;63458;48.210;16.338;2023-04-03T04:12:48;6.97;;;3.70;;
74898;SDS011;63458;48.210;16.338;2023-04-03T04:15:16;6.53;;;3.72;;
74898;SDS011;63458;48.210;16.338;2023-04-03T04:17:42;6.20;;;3.65;;
74898;SDS011;63458;48.210;16.338;2023-04-03T04:20:09;6.85;;;3.45;;
74898;SDS011;63458;48.210;16.338;2023-04-03T04:22:35;6.70;;;3.95;;
74898;SDS011;63458;48.210;16.338;2023-04-03T04:25:01;7.57;;;3.63;;
74898;SDS011;63458;48.210;16.338;2023-04-03T04:27:27;7.63;;;3.78;;
74898;SDS011;63458;48.210;16.338;2023-04-03T04:29:53;7.85;;;4.05;;
74898;SDS011;63458;48.210;16.338;2023-04-03T04:32:19;7.15;;;3.40;;
74898;SDS011;63458;48.210;16.338;2023-04-03T04:34:45;7.00;;;3.50;;
74898;SDS011;63458;48.210;16.338;2023-04-03T04:37:11;6.43;;;3.60;;
74898;SDS011;63458;48.210;16.338;2023-04-03T04:39:37;8.10;;;4.40;;
74898;SDS011;63458;48.210;16.338;2023-04-03T04:42:03;7.40;;;3.35;;
74898;SDS011;63458;48.210;16.338;2023-04-03T04:44:29;7.65;;;3.50;;
74898;SDS011;63458;48.210;16.338;2023-04-03T04:46:55;6.95;;;3.55;;
74898;SDS011;63458;48.210;16.338;2023-04-03T04:49:21;7.03;;;3.42;;
74898;SDS011;63458;48.210;16.338;2023-04-03T04:51:47;7.30;;;3.60;;
74898;SDS011;63458;48.210;16.338;2023-04-03T04:54:13;6.97;;;3.45;;
74898;SDS011;63458;48.210;16.338;2023-04-03T04:56:39;7.05;;;4.10;;
74898;SDS011;63458;48.210;16.338;2023-04-03T04:59:05;6.45;;;3.10;;
74898;SDS011;63458;48.210;16.338;2023-04-03T05:01:31;8.30;;;3.80;;
74898;SDS011;63458;48.210;16.338;2023-04-03T05:03:57;9.00;;;3.33;;
74898;SDS011;63458;48.210;16.338;2023-04-03T05:06:23;6.10;;;3.05;;
74898;SDS011;63458;48.210;16.338;2023-04-03T05:08:49;6.80;;;3.30;;
74898;SDS011;63458;48.210;16.338;2023-04-03T05:11:15;7.90;;;3.95;;
74898;SDS011;63458;48.210;16.338;2023-04-03T05:13:42;7.40;;;3.67;;
74898;SDS011;63458;48.210;16.338;2023-04-03T05:16:07;8.77;;;3.53;;
74898;SDS011;63458;48.210;16.338;2023-04-03T05:18:33;6.82;;;2.90;;
74898;SDS011;63458;48.210;16.338;2023-04-03T05:21:00;8.02;;;4.05;;
74898;SDS011;63458;48.210;16.338;2023-04-03T05:23:26;6.57;;;3.22;;
74898;SDS011;63458;48.210;16.338;2023-04-03T05:25:52;7.60;;;3.80;;
74898;SDS011;63458;48.210;16.338;2023-04-03T05:28:18;8.15;;;4.18;;
74898;SDS011;63458;48.210;16.338;2023-04-03T05:30:44;6.47;;;3.50;;
74898;SDS011;63458;48.210;16.338;2023-04-03T05:33:10;6.30;;;3.20;;
74898;SDS011;63458;48.210;16.338;2023-04-03T05:35:37;7.78;;;3.85;;
74898;SDS011;63458;48.210;16.338;2023-04-03T05:38:06;6.72;;;3.22;;
74898;SDS011;63458;48.210;16.338;2023-04-03T05:40:32;7.28;;;3.45;;
74898;SDS011;63458;48.210;16.338;2023-04-03T05:42:58;6.20;;;3.38;;
74898;SDS011;63458;48.210;16.338;2023-04-03T05:45:24;6.15;;;3.38;;
74898;SDS011;63458;48.210;16.338;2023-04-03T05:47:50;6.60;;;3.47;;
74898;SDS011;63458;48.210;16.338;2023-04-03T05:50:16;6.80;;;3.70;;
74898;SDS011;63458;48.210;16.338;2023-04-03T05:52:43;6.55;;;3.42;;
74898;SDS011;63458;48.210;16.338;2023-04-03T05:55:10;6.45;;;3.40;;
74898;SDS011;63458;48.210;16.338;2023-04-03T05:57:36;7.38;;;4.05;;
74898;SDS011;63458;48.210;16.338;2023-04-03T06:00:03;7.00;;;3.38;;
74898;SDS011;63458;48.210;16.338;2023-04-03T06:02:30;6.20;;;3.55;;
74898;SDS011;63458;48.210;16.338;2023-04-03T06:04:56;6.93;;;3.70;;
74898;SDS011;63458;48.210;16.338;2023-04-03T06:07:23;7.50;;;3.55;;
74898;SDS011;63458;48.210;16.338;2023-04-03T06:09:52;8.27;;;4.10;;
74898;SDS011;63458;48.210;16.338;2023-04-03T06:12:18;7.40;;;3.65;;
74898;SDS011;63458;48.210;16.338;2023-04-03T06:14:44;7.47;;;3.70;;
74898;SDS011;63458;48.210;16.338;2023-04-03T06:17:10;8.38;;;4.20;;
74898;SDS011;63458;48.210;16.338;2023-04-03T06:19:37;7.30;;;3.83;;
74898;SDS011;63458;48.210;16.338;2023-04-03T06:22:03;7.65;;;3.85;;
74898;SDS011;63458;48.210;16.338;2023-04-03T06:24:30;43.50;;;23.80;;
74898;SDS011;63458;48.210;16.338;2023-04-03T06:26:57;75.22;;;40.70;;
74898;SDS011;63458;48.210;16.338;2023-04-03T06:29:23;33.42;;;20.77;;
74898;SDS011;63458;48.210;16.338;2023-04-03T06:31:50;31.42;;;17.40;;
74898;SDS011;63458;48.210;16.338;2023-04-03T06:34:17;23.02;;;12.85;;
74898;SDS011;63458;48.210;16.338;2023-04-03T06:36:43;12.20;;;6.70;;
74898;SDS011;63458;48.210;16.338;2023-04-03T06:39:13;14.75;;;9.10;;
74898;SDS011;63458;48.210;16.338;2023-04-03T06:41:40;7.25;;;4.28;;
74898;SDS011;63458;48.210;16.338;2023-04-03T06:44:06;7.35;;;4.30;;
74898;SDS011;63458;48.210;16.338;2023-04-03T06:46:36;7.97;;;3.55;;
74898;SDS011;63458;48.210;16.338;2023-04-03T06:49:02;7.47;;;3.95;;
74898;SDS011;63458;48.210;16.338;2023-04-03T06:51:30;7.55;;;4.03;;
74898;SDS011;63458;48.210;16.338;2023-04-03T06:53:57;8.32;;;3.92;;
74898;SDS011;63458;48.210;16.338;2023-04-03T06:56:23;8.40;;;4.45;;
74898;SDS011;63458;48.210;16.338;2023-04-03T06:58:50;9.93;;;4.00;;
74898;SDS011;63458;48.210;16.338;2023-04-03T07:01:19;8.23;;;4.20;;
74898;SDS011;63458;48.210;16.338;2023-04-03T07:03:45;7.57;;;4.22;;
74898;SDS011;63458;48.210;16.338;2023-04-03T07:06:13;9.77;;;3.50;;
74898;SDS011;63458;48.210;16.338;2023-04-03T07:08:39;7.18;;;3.88;;
74898;SDS011;63458;48.210;16.338;2023-04-03T07:11:07;7.60;;;3.70;;
74898;SDS011;63458;48.210;16.338;2023-04-03T07:13:33;8.18;;;4.30;;
74898;SDS011;63458;48.210;16.338;2023-04-03T07:15:59;7.10;;;3.85;;
74898;SDS011;63458;48.210;16.338;2023-04-03T07:18:26;6.05;;;3.58;;
74898;SDS011;63458;48.210;16.338;2023-04-03T07:20:52;8.30;;;3.70;;
74898;SDS011;63458;48.210;16.338;2023-04-03T07:23:18;6.40;;;3.28;;
74898;SDS011;63458;48.210;16.338;2023-04-03T07:25:44;7.85;;;3.38;;
74898;SDS011;63458;48.210;16.338;2023-04-03T07:28:11;7.10;;;3.92;;
74898;SDS011;63458;48.210;16.338;2023-04-03T07:30:47;7.93;;;4.30;;
74898;SDS011;63458;48.210;16.338;2023-04-03T07:33:14;6.85;;;3.22;;
74898;SDS011;63458;48.210;16.338;2023-04-03T07:35:41;7.43;;;3.83;;
74898;SDS011;63458;48.210;16.338;2023-04-03T07:38:07;7.82;;;3.70;;
74898;SDS011;63458;48.210;16.338;2023-04-03T07:40:33;6.95;;;3.20;;
74898;SDS011;63458;48.210;16.338;2023-04-03T07:43:00;8.70;;;4.57;;
74898;SDS011;63458;48.210;16.338;2023-04-03T07:45:26;8.90;;;4.15;;
74898;SDS011;63458;48.210;16.338;2023-04-03T07:47:52;6.70;;;3.80;;
74898;SDS011;63458;48.210;16.338;2023-04-03T07:50:18;8.82;;;4.35;;
74898;SDS011;63458;48.210;16.338;2023-04-03T07:52:44;7.50;;;4.10;;
74898;SDS011;63458;48.210;16.338;2023-04-03T07:55:11;7.55;;;3.53;;
74898;SDS011;63458;48.210;16.338;2023-04-03T07:57:37;8.77;;;4.07;;
74898;SDS011;63458;48.210;16.338;2023-04-03T08:00:04;8.15;;;4.78;;
74898;SDS011;63458;48.210;16.338;2023-04-03T08:02:30;8.02;;;5.00;;
74898;SDS011;63458;48.210;16.338;2023-04-03T08:04:57;9.40;;;4.43;;
74898;SDS011;63458;48.210;16.338;2023-04-03T08:07:23;7.88;;;3.78;;
74898;SDS011;63458;48.210;16.338;2023-04-03T08:09:50;9.43;;;4.47;;
74898;SDS011;63458;48.210;16.338;2023-04-03T08:12:16;10.05;;;5.07;;
74898;SDS011;63458;48.210;16.338;2023-04-03T08:14:42;7.72;;;4.03;;
74898;SDS011;63458;48.210;16.338;2023-04-03T08:17:08;9.07;;;3.85;;
74898;SDS011;63458;48.210;16.338;2023-04-03T08:19:39;7.65;;;4.10;;
74898;SDS011;63458;48.210;16.338;2023-04-03T08:22:05;7.43;;;4.00;;
74898;SDS011;63458;48.210;16.338;2023-04-03T08:24:33;8.57;;;4.18;;
74898;SDS011;63458;48.210;16.338;2023-04-03T08:26:59;8.50;;;4.55;;
74898;SDS011;63458;48.210;16.338;2023-04-03T08:29:26;7.35;;;3.67;;
74898;SDS011;63458;48.210;16.338;2023-04-03T08:31:52;7.32;;;4.03;;
74898;SDS011;63458;48.210;16.338;2023-04-03T08:34:19;7.38;;;3.67;;
74898;SDS011;63458;48.210;16.338;2023-04-03T08:36:45;7.88;;;3.97;;
74898;SDS011;63458;48.210;16.338;2023-04-03T08:39:11;7.13;;;3.60;;
74898;SDS011;63458;48.210;16.338;2023-04-03T08:41:38;8.75;;;4.05;;
74898;SDS011;63458;48.210;16.338;2023-04-03T08:49:58;7.85;;;3.40;;
74898;SDS011;63458;48.210;16.338;2023-04-03T08:52:11;10.25;;;5.45;;
74898;SDS011;63458;48.210;16.338;2023-04-03T08:54:48;7.82;;;4.10;;
74898;SDS011;63458;48.210;16.338;2023-04-03T08:57:15;8.70;;;4.13;;
74898;SDS011;63458;48.210;16.338;2023-04-03T08:59:41;8.82;;;3.90;;
74898;SDS011;63458;48.210;16.338;2023-04-03T09:02:41;7.93;;;3.50;;
74898;SDS011;63458;48.210;16.338;2023-04-03T09:05:01;7.07;;;3.50;;
74898;SDS011;63458;48.210;16.338;2023-04-03T09:07:32;7.38;;;3.60;;
74898;SDS011;63458;48.210;16.338;2023-04-03T09:09:59;7.78;;;4.03;;
74898;SDS011;63458;48.210;16.338;2023-04-03T09:12:29;6.50;;;3.72;;
74898;SDS011;63458;48.210;16.338;2023-04-03T09:18:03;5.72;;;3.17;;
74898;SDS011;63458;48.210;16.338;2023-04-03T09:22:59;7.57;;;3.33;;
74898;SDS011;63458;48.210;16.338;2023-04-03T09:25:31;12.10;;;7.18;;
74898;SDS011;63458;48.210;16.338;2023-04-03T09:28:00;18.83;;;10.18;;
74898;SDS011;63458;48.210;16.338;2023-04-03T09:30:34;7.72;;;3.63;;
74898;SDS011;63458;48.210;16.338;2023-04-03T09:33:00;6.82;;;2.92;;
74898;SDS011;63458;48.210;16.338;2023-04-03T09:35:30;5.88;;;3.03;;
74898;SDS011;63458;48.210;16.338;2023-04-03T09:37:58;6.78;;;2.92;;
74898;SDS011;63458;48.210;16.338;2023-04-03T09:42:52;7.00;;;4.00;;
74898;SDS011;63458;48.210;16.338;2023-04-03T09:48:04;12.57;;;6.65;;
74898;SDS011;63458;48.210;16.338;2023-04-03T09:50:33;17.10;;;8.63;;
74898;SDS011;63458;48.210;16.338;2023-04-03T09:53:03;14.45;;;10.50;;
74898;SDS011;63458;48.210;16.338;2023-04-03T09:55:30;18.98;;;13.70;;
74898;SDS011;63458;48.210;16.338;2023-04-03T10:00:26;9.43;;;5.03;;
74898;SDS011;63458;48.210;16.338;2023-04-03T10:02:55;38.47;;;23.10;;
74898;SDS011;63458;48.210;16.338;2023-04-03T10:07:50;8.38;;;4.18;;
74898;SDS011;63458;48.210;16.338;2023-04-03T10:10:21;7.07;;;3.65;;
74898;SDS011;63458;48.210;16.338;2023-04-03T10:15:58;6.70;;;3.30;;
74898;SDS011;63458;48.210;16.338;2023-04-03T10:24:27;6.70;;;3.53;;
74898;SDS011;63458;48.210;16.338;2023-04-03T10:36:38;11.68;;;5.07;;
74898;SDS011;63458;48.210;16.338;2023-04-03T10:39:12;9.27;;;3.95;;
74898;SDS011;63458;48.210;16.338;2023-04-03T10:47:34;8.57;;;3.67;;
74898;SDS011;63458;48.210;16.338;2023-04-03T10:57:30;10.80;;;3.60;;
74898;SDS011;63458;48.210;16.338;2023-04-03T11:00:01;7.28;;;3.70;;
74898;SDS011;63458;48.210;16.338;2023-04-03T11:05:15;8.07;;;4.38;;
74898;SDS011;63458;48.210;16.338;2023-04-03T11:07:45;10.00;;;5.03;;
74898;SDS011;63458;48.210;16.338;2023-04-03T11:15:15;6.80;;;3.10;;
74898;SDS011;63458;48.210;16.338;2023-04-03T11:17:43;7.82;;;3.67;;
74898;SDS011;63458;48.210;16.338;2023-04-03T11:20:27;6.32;;;2.75;;
74898;SDS011;63458;48.210;16.338;2023-04-03T11:23:01;7.20;;;3.10;;
74898;SDS011;63458;48.210;16.338;2023-04-03T11:25:29;6.72;;;3.15;;
74898;SDS011;63458;48.210;16.338;2023-04-03T11:27:59;9.38;;;3.03;;
74898;SDS011;63458;48.210;16.338;2023-04-03T11:33:42;9.45;;;5.05;;
74898;SDS011;63458;48.210;16.338;2023-04-03T11:38:33;8.93;;;4.30;;
74898;SDS011;63458;48.210;16.338;2023-04-03T11:41:04;8.95;;;3.92;;
74898;SDS011;63458;48.210;16.338;2023-04-03T11:50:53;8.48;;;4.25;;
74898;SDS011;63458;48.210;16.338;2023-04-03T11:56:00;8.07;;;4.15;;
74898;SDS011;63458;48.210;16.338;2023-04-03T12:00:56;7.47;;;4.05;;
74898;SDS011;63458;48.210;16.338;2023-04-03T12:13:35;7.60;;;3.33;;
74898;SDS011;63458;48.210;16.338;2023-04-03T12:16:01;7.28;;;3.72;;
74898;SDS011;63458;48.210;16.338;2023-04-03T12:21:07;8.43;;;3.30;;
74898;SDS011;63458;48.210;16.338;2023-04-03T12:23:34;8.02;;;4.10;;
74898;SDS011;63458;48.210;16.338;2023-04-03T12:26:03;7.10;;;3.80;;
74898;SDS011;63458;48.210;16.338;2023-04-03T12:28:34;9.25;;;5.70;;
74898;SDS011;63458;48.210;16.338;2023-04-03T12:31:01;8.60;;;4.13;;
74898;SDS011;63458;48.210;16.338;2023-04-03T12:33:31;18.83;;;10.35;;
74898;SDS011;63458;48.210;16.338;2023-04-03T12:38:37;7.40;;;3.55;;
74898;SDS011;63458;48.210;16.338;2023-04-03T12:46:36;9.05;;;4.00;;
74898;SDS011;63458;48.210;16.338;2023-04-03T12:49:10;10.02;;;5.03;;
74898;SDS011;63458;48.210;16.338;2023-04-03T12:51:42;6.93;;;3.85;;
74898;SDS011;63458;48.210;16.338;2023-04-03T12:56:49;7.00;;;3.78;;
74898;SDS011;63458;48.210;16.338;2023-04-03T12:59:18;7.82;;;4.05;;
74898;SDS011;63458;48.210;16.338;2023-04-03T13:01:52;8.88;;;4.30;;
74898;SDS011;63458;48.210;16.338;2023-04-03T13:04:19;8.48;;;3.97;;
74898;SDS011;63458;48.210;16.338;2023-04-03T13:06:45;7.57;;;3.60;;
74898;SDS011;63458;48.210;16.338;2023-04-03T13:09:27;6.30;;;3.13;;
74898;SDS011;63458;48.210;16.338;2023-04-03T13:12:03;8.27;;;3.90;;
74898;SDS011;63458;48.210;16.338;2023-04-03T13:14:36;13.77;;;7.72;;
74898;SDS011;63458;48.210;16.338;2023-04-03T13:17:04;8.27;;;4.70;;
74898;SDS011;63458;48.210;16.338;2023-04-03T13:19:30;8.65;;;4.78;;
74898;SDS011;63458;48.210;16.338;2023-04-03T13:22:01;7.28;;;4.30;;
74898;SDS011;63458;48.210;16.338;2023-04-03T13:24:29;11.13;;;7.00;;
74898;SDS011;63458;48.210;16.338;2023-04-03T13:26:56;9.15;;;5.13;;
74898;SDS011;63458;48.210;16.338;2023-04-03T13:29:24;9.77;;;5.15;;
74898;SDS011;63458;48.210;16.338;2023-04-03T13:31:52;7.35;;;4.45;;
74898;SDS011;63458;48.210;16.338;2023-04-03T13:34:19;8.73;;;6.07;;
74898;SDS011;63458;48.210;16.338;2023-04-03T13:41:43;9.18;;;4.70;;
74898;SDS011;63458;48.210;16.338;2023-04-03T13:46:44;11.00;;;7.82;;
74898;SDS011;63458;48.210;16.338;2023-04-03T13:49:17;9.77;;;6.20;;
74898;SDS011;63458;48.210;16.338;2023-04-03T13:51:43;10.68;;;6.35;;
74898;SDS011;63458;48.210;16.338;2023-04-03T13:54:16;12.43;;;7.43;;
74898;SDS011;63458;48.210;16.338;2023-04-03T13:56:43;11.05;;;5.65;;
74898;SDS011;63458;48.210;16.338;2023-04-03T14:01:43;10.68;;;5.30;;
74898;SDS011;63458;48.210;16.338;2023-04-03T14:04:15;17.15;;;9.02;;
74898;SDS011;63458;48.210;16.338;2023-04-03T14:06:41;12.10;;;7.10;;
74898;SDS011;63458;48.210;16.338;2023-04-03T14:09:08;11.93;;;5.85;;
74898;SDS011;63458;48.210;16.338;2023-04-03T14:11:34;9.65;;;4.00;;
74898;SDS011;63458;48.210;16.338;2023-04-03T14:14:02;9.13;;;3.85;;
74898;SDS011;63458;48.210;16.338;2023-04-03T14:16:31;9.65;;;4.28;;
74898;SDS011;63458;48.210;16.338;2023-04-03T14:21:25;10.93;;;5.45;;
74898;SDS011;63458;48.210;16.338;2023-04-03T14:23:51;9.88;;;4.38;;
74898;SDS011;63458;48.210;16.338;2023-04-03T14:26:18;7.28;;;3.67;;
74898;SDS011;63458;48.210;16.338;2023-04-03T14:28:46;6.15;;;3.13;;
74898;SDS011;63458;48.210;16.338;2023-04-03T14:31:13;7.47;;;3.95;;
74898;SDS011;63458;48.210;16.338;2023-04-03T14:33:39;6.60;;;3.17;;
74898;SDS011;63458;48.210;16.338;2023-04-03T14:36:16;7.65;;;3.95;;
74898;SDS011;63458;48.210;16.338;2023-04-03T14:38:43;9.95;;;3.80;;
74898;SDS011;63458;48.210;16.338;2023-04-03T14:41:13;13.50;;;8.13;;
74898;SDS011;63458;48.210;16.338;2023-04-03T14:43:39;13.02;;;7.78;;
74898;SDS011;63458;48.210;16.338;2023-04-03T14:46:09;9.23;;;4.72;;
74898;SDS011;63458;48.210;16.338;2023-04-03T14:48:37;12.40;;;7.30;;
74898;SDS011;63458;48.210;16.338;2023-04-03T14:51:03;9.25;;;5.97;;
74898;SDS011;63458;48.210;16.338;2023-04-03T14:53:29;7.32;;;3.90;;
74898;SDS011;63458;48.210;16.338;2023-04-03T14:55:59;10.15;;;6.80;;
74898;SDS011;63458;48.210;16.338;2023-04-03T14:58:25;9.70;;;5.45;;
74898;SDS011;63458;48.210;16.338;2023-04-03T15:00:51;6.95;;;3.85;;
74898;SDS011;63458;48.210;16.338;2023-04-03T15:03:18;5.85;;;3.10;;
74898;SDS011;63458;48.210;16.338;2023-04-03T15:05:44;8.32;;;3.53;;
74898;SDS011;63458;48.210;16.338;2023-04-03T15:08:21;6.43;;;3.60;;
74898;SDS011;63458;48.210;16.338;2023-04-03T15:10:48;6.68;;;3.72;;
74898;SDS011;63458;48.210;16.338;2023-04-03T15:13:15;6.60;;;2.90;;
74898;SDS011;63458;48.210;16.338;2023-04-03T15:15:41;7.05;;;3.88;;
74898;SDS011;63458;48.210;16.338;2023-04-03T15:18:10;8.35;;;5.40;;
74898;SDS011;63458;48.210;16.338;2023-04-03T15:20:36;11.25;;;7.32;;
74898;SDS011;63458;48.210;16.338;2023-04-03T15:23:02;9.93;;;6.28;;
74898;SDS011;63458;48.210;16.338;2023-04-03T15:25:29;8.60;;;6.20;;
74898;SDS011;63458;48.210;16.338;2023-04-03T15:27:55;9.20;;;7.45;;
74898;SDS011;63458;48.210;16.338;2023-04-03T15:30:22;11.35;;;8.68;;
74898;SDS011;63458;48.210;16.338;2023-04-03T15:32:48;12.48;;;9.60;;
74898;SDS011;63458;48.210;16.338;2023-04-03T15:35:14;9.38;;;6.70;;
74898;SDS011;63458;48.210;16.338;2023-04-03T15:37:40;7.65;;;5.07;;
74898;SDS011;63458;48.210;16.338;2023-04-03T15:40:06;6.93;;;4.75;;
74898;SDS011;63458;48.210;16.338;2023-04-03T15:42:32;7.45;;;4.40;;
74898;SDS011;63458;48.210;16.338;2023-04-03T15:44:59;8.55;;;5.40;;
74898;SDS011;63458;48.210;16.338;2023-04-03T15:47:25;10.70;;;6.43;;
74898;SDS011;63458;48.210;16.338;2023-04-03T15:49:52;9.35;;;6.93;;
74898;SDS011;63458;48.210;16.338;2023-04-03T15:52:19;23.25;;;13.15;;
74898;SDS011;63458;48.210;16.338;2023-04-03T15:54:45;12.80;;;8.45;;
74898;SDS011;63458;48.210;16.338;2023-04-03T15:57:11;15.30;;;8.95;;
74898;SDS011;63458;48.210;16.338;2023-04-03T15:59:37;11.13;;;6.80;;
74898;SDS011;63458;48.210;16.338;2023-04-03T16:02:03;8.98;;;5.50;;
74898;SDS011;63458;48.210;16.338;2023-04-03T16:04:32;7.43;;;4.13;;
74898;SDS011;63458;48.210;16.338;2023-04-03T16:07:00;8.48;;;5.75;;
74898;SDS011;63458;48.210;16.338;2023-04-03T16:09:26;9.63;;;6.00;;
74898;SDS011;63458;48.210;16.338;2023-04-03T16:11:52;11.43;;;6.28;;
74898;SDS011;63458;48.210;16.338;2023-04-03T16:14:18;11.13;;;6.88;;
74898;SDS011;63458;48.210;16.338;2023-04-03T16:16:45;13.23;;;6.63;;
74898;SDS011;63458;48.210;16.338;2023-04-03T16:19:11;13.30;;;7.10;;
74898;SDS011;63458;48.210;16.338;2023-04-03T16:21:38;16.73;;;9.93;;
74898;SDS011;63458;48.210;16.338;2023-04-03T16:24:04;13.27;;;8.52;;
74898;SDS011;63458;48.210;16.338;2023-04-03T16:26:31;9.02;;;5.00;;
74898;SDS011;63458;48.210;16.338;2023-04-03T16:28:57;11.13;;;6.70;;
74898;SDS011;63458;48.210;16.338;2023-04-03T16:31:23;10.10;;;5.70;;
74898;SDS011;63458;48.210;16.338;2023-04-03T16:33:50;12.50;;;8.38;;
74898;SDS011;63458;48.210;16.338;2023-04-03T16:36:17;13.05;;;7.85;;